Time;durP1;ratioP1;P1;durP2;ratioP2;P2;SDS_P1;SDS_P2;PMS_P1;PMS_P2;Temp;Humidity;BMP_temperature;BMP_pressure;BME280_temperature;BME280_humidity;BME280_pressure;Samples;Min_cycle;Max_cycle;Signal;HPM_P1;HPM_P2
2022/01/24 00:02:09;;;;;;;21.80;10.20;;;;;;;;;;6202038;23;20176;-90
2022/01/24 00:05:17;;;;;;;19.20;9.40;;;;;;;;;;6201648;23;20212;-90
2022/01/24 00:08:22;;;;;;;23.37;10.43;;;;;;;;;;6201412;23;20200;-90
2022/01/24 00:11:38;;;;;;;22.80;11.17;;;;;;;;;;6201669;23;20196;-88
2022/01/24 16:35:14;;;;;;;11.87;5.60;;;;;;;;;;6077524;22;1590473;-90
2022/01/24 16:38:22;;;;;;;13.20;5.70;;;;;;;;;;6145145;23;20197;-91
2022/01/24 16:41:36;;;;;;;13.90;5.90;;;;;;;;;;6141347;23;20182;-89
2022/01/24 16:45:01;;;;;;;11.83;6.40;;;;;;;;;;6142930;23;20174;-91
2022/01/24 16:48:05;;;;;;;14.13;5.80;;;;;;;;;;6148205;23;20157;-89
2022/01/24 16:51:13;;;;;;;16.67;6.47;;;;;;;;;;6146777;23;20210;-90
2022/01/24 16:54:18;;;;;;;12.27;5.63;;;;;;;;;;6144775;23;20158;-89
2022/01/24 16:57:24;;;;;;;13.57;5.90;;;;;;;;;;6140665;23;20269;-88
2022/01/24 17:00:29;;;;;;;12.03;5.30;;;;;;;;;;6144413;23;20222;-87
2022/01/24 17:03:35;;;;;;;11.80;5.40;;;;;;;;;;6144048;23;20209;-88
2022/01/24 17:06:43;;;;;;;13.87;5.73;;;;;;;;;;6143836;23;20190;-89
2022/01/24 17:09:48;;;;;;;13.53;5.70;;;;;;;;;;6141336;23;20174;-90
2022/01/24 17:12:57;;;;;;;13.53;5.80;;;;;;;;;;6143968;23;20181;-89
2022/01/24 17:16:05;;;;;;;19.53;8.37;;;;;;;;;;6145166;23;20190;-90
2022/01/24 17:19:11;;;;;;;12.47;6.23;;;;;;;;;;6146367;23;20173;-89
2022/01/24 17:22:18;;;;;;;12.97;6.80;;;;;;;;;;6141653;23;20177;-90
2022/01/24 17:25:23;;;;;;;12.10;6.13;;;;;;;;;;6141468;23;20173;-88
2022/01/24 17:28:28;;;;;;;14.60;7.03;;;;;;;;;;6141298;23;20177;-89
2022/01/24 17:31:33;;;;;;;20.77;9.63;;;;;;;;;;6144042;23;20453;-90
2022/01/24 17:34:38;;;;;;;18.50;7.43;;;;;;;;;;6144117;23;20185;-89
2022/01/24 17:37:45;;;;;;;17.83;8.47;;;;;;;;;;6143498;23;20198;-90
2022/01/24 17:40:50;;;;;;;34.77;12.77;;;;;;;;;;6142526;23;20169;-90
2022/01/24 17:43:55;;;;;;;21.17;8.40;;;;;;;;;;6143285;23;20157;-91
2022/01/24 17:47:00;;;;;;;18.57;8.23;;;;;;;;;;6142114;23;20509;-90
2022/01/24 17:50:06;;;;;;;35.40;14.87;;;;;;;;;;6143398;23;20153;-90
2022/01/24 17:53:13;;;;;;;23.03;9.67;;;;;;;;;;6142438;23;20225;-90
2022/01/24 17:56:18;;;;;;;25.17;10.03;;;;;;;;;;6143310;23;20153;-90
2022/01/24 17:59:24;;;;;;;15.93;7.60;;;;;;;;;;6143240;23;20177;-89
2022/01/24 18:02:29;;;;;;;13.50;7.27;;;;;;;;;;6144912;23;20174;-89
2022/01/24 18:05:35;;;;;;;14.80;6.83;;;;;;;;;;6144224;23;20232;-90
2022/01/24 18:08:41;;;;;;;21.63;9.03;;;;;;;;;;6142929;23;20465;-88
2022/01/24 18:11:47;;;;;;;23.30;10.07;;;;;;;;;;6142423;23;20177;-88
2022/01/24 18:14:52;;;;;;;19.80;8.77;;;;;;;;;;6143405;23;20177;-90
2022/01/24 18:17:58;;;;;;;16.70;8.53;;;;;;;;;;6144048;23;20245;-89
2022/01/24 18:21:04;;;;;;;18.20;8.73;;;;;;;;;;6142289;23;20173;-89
2022/01/24 18:24:10;;;;;;;21.07;9.93;;;;;;;;;;6143209;23;20174;-90
2022/01/24 18:27:16;;;;;;;39.53;18.30;;;;;;;;;;6143618;23;20266;-89
2022/01/24 18:30:22;;;;;;;19.00;9.67;;;;;;;;;;6143039;23;20213;-89
2022/01/24 18:33:28;;;;;;;19.90;9.37;;;;;;;;;;6142408;23;20576;-89
2022/01/24 18:36:33;;;;;;;23.00;8.87;;;;;;;;;;6142700;23;20596;-91
2022/01/24 18:39:40;;;;;;;20.03;9.17;;;;;;;;;;6146239;23;20193;-90
2022/01/24 18:42:47;;;;;;;24.43;9.33;;;;;;;;;;6145030;23;20153;-89
2022/01/24 18:45:53;;;;;;;26.67;10.13;;;;;;;;;;6142732;23;20181;-87
2022/01/24 18:48:58;;;;;;;19.83;9.60;;;;;;;;;;6142313;23;20198;-91
2022/01/24 18:52:04;;;;;;;21.80;9.37;;;;;;;;;;6143584;23;20181;-88
2022/01/24 18:55:13;;;;;;;20.23;9.03;;;;;;;;;;6142833;23;20166;-88
2022/01/24 18:58:19;;;;;;;20.17;9.03;;;;;;;;;;6143121;23;20210;-89
2022/01/24 19:01:29;;;;;;;20.13;8.47;;;;;;;;;;6142971;23;20194;-91
2022/01/24 19:04:34;;;;;;;19.50;8.67;;;;;;;;;;6142976;23;20228;-88
2022/01/24 19:07:39;;;;;;;30.73;10.97;;;;;;;;;;6144332;23;20169;-90
2022/01/24 19:10:47;;;;;;;28.97;10.60;;;;;;;;;;6143871;23;20200;-89
2022/01/24 19:13:52;;;;;;;29.63;10.97;;;;;;;;;;6143433;23;20173;-88
2022/01/24 19:16:59;;;;;;;29.13;12.00;;;;;;;;;;6142332;23;20166;-88
2022/01/24 19:23:09;;;;;;;35.93;14.03;;;;;;;;;;6141429;23;20217;-89
2022/01/24 19:23:29;;;;;;;26.83;10.20;;;;;;;;;;6144764;23;20213;-89
2022/01/24 19:26:36;;;;;;;21.77;9.67;;;;;;;;;;6140841;23;20208;-88
2022/01/24 19:29:42;;;;;;;23.97;9.50;;;;;;;;;;6143626;23;20209;-90
2022/01/24 19:32:47;;;;;;;21.97;10.47;;;;;;;;;;6141926;23;20637;-90
2022/01/24 19:35:54;;;;;;;21.30;10.47;;;;;;;;;;6142536;23;20161;-90
2022/01/24 19:38:59;;;;;;;21.80;10.17;;;;;;;;;;6143721;23;20195;-88
2022/01/24 19:42:07;;;;;;;24.77;9.73;;;;;;;;;;6141048;23;20157;-90
2022/01/24 19:45:12;;;;;;;21.73;10.20;;;;;;;;;;6144086;23;20198;-89
2022/01/24 19:48:23;;;;;;;22.37;10.00;;;;;;;;;;6142672;23;20169;-90
2022/01/24 19:51:28;;;;;;;22.33;9.93;;;;;;;;;;6143118;23;20162;-88
2022/01/24 19:54:36;;;;;;;25.50;10.40;;;;;;;;;;6146682;23;20168;-90
2022/01/24 19:57:48;;;;;;;24.70;10.30;;;;;;;;;;6144379;23;20272;-88
2022/01/24 20:00:54;;;;;;;23.17;10.77;;;;;;;;;;6145070;23;20157;-90
2022/01/24 20:04:00;;;;;;;25.63;10.83;;;;;;;;;;6141849;23;20173;-89
2022/01/24 20:07:07;;;;;;;26.17;11.10;;;;;;;;;;6142401;23;20218;-90
2022/01/24 20:10:12;;;;;;;24.20;10.50;;;;;;;;;;6142007;23;20173;-88
2022/01/24 20:13:20;;;;;;;27.67;11.23;;;;;;;;;;6141921;23;20431;-89
2022/01/24 20:16:26;;;;;;;24.07;10.20;;;;;;;;;;6140550;23;20437;-89
2022/01/24 20:19:31;;;;;;;26.43;11.00;;;;;;;;;;6142593;23;20205;-89
2022/01/24 20:22:36;;;;;;;24.37;10.17;;;;;;;;;;6143131;23;20217;-90
2022/01/24 20:25:43;;;;;;;26.20;10.27;;;;;;;;;;6143267;23;20173;-89
2022/01/24 20:28:51;;;;;;;21.43;9.87;;;;;;;;;;6142008;23;20224;-89
2022/01/24 20:31:58;;;;;;;25.20;10.27;;;;;;;;;;6143753;23;20182;-88
2022/01/24 20:35:04;;;;;;;24.87;10.73;;;;;;;;;;6144510;23;20233;-89
2022/01/24 20:38:09;;;;;;;26.87;10.57;;;;;;;;;;6143056;23;20533;-89
2022/01/24 20:41:14;;;;;;;26.90;11.17;;;;;;;;;;6144558;23;20169;-90
2022/01/24 20:44:21;;;;;;;29.37;10.70;;;;;;;;;;6144922;23;20289;-90
2022/01/24 20:47:27;;;;;;;28.50;11.93;;;;;;;;;;6144559;23;20268;-90
2022/01/24 20:50:33;;;;;;;29.53;13.40;;;;;;;;;;6143639;23;20230;-89
2022/01/24 20:53:39;;;;;;;34.70;13.07;;;;;;;;;;6143372;23;20177;-89
2022/01/24 20:56:44;;;;;;;26.40;12.10;;;;;;;;;;6144262;23;20153;-89
2022/01/24 20:59:51;;;;;;;22.67;10.13;;;;;;;;;;6144967;23;20221;-88
2022/01/24 21:02:56;;;;;;;23.57;9.93;;;;;;;;;;6146600;23;20170;-89
2022/01/24 21:06:01;;;;;;;19.67;8.80;;;;;;;;;;6144508;23;20153;-91
2022/01/24 21:09:14;;;;;;;21.00;9.27;;;;;;;;;;6143068;23;20169;-89
2022/01/24 21:12:21;;;;;;;24.90;9.63;;;;;;;;;;6144842;23;20205;-89
2022/01/24 21:15:32;;;;;;;24.73;10.03;;;;;;;;;;6143872;23;20191;-88
2022/01/24 21:18:40;;;;;;;23.17;9.63;;;;;;;;;;6144481;23;20273;-88
2022/01/24 21:21:45;;;;;;;20.70;9.47;;;;;;;;;;6143652;23;20170;-89
2022/01/24 21:24:50;;;;;;;23.63;10.17;;;;;;;;;;6142861;23;20226;-90
2022/01/24 21:27:56;;;;;;;24.50;9.73;;;;;;;;;;6142043;23;20169;-87
2022/01/24 21:31:00;;;;;;;23.87;10.13;;;;;;;;;;6141918;23;20174;-89
2022/01/24 21:34:26;;;;;;;23.97;9.73;;;;;;;;;;6142899;23;20192;-91
2022/01/24 21:37:31;;;;;;;24.37;10.30;;;;;;;;;;6143472;23;20244;-89
2022/01/24 21:40:37;;;;;;;24.80;11.30;;;;;;;;;;6145081;23;20221;-89
2022/01/24 21:43:42;;;;;;;24.97;11.57;;;;;;;;;;6142957;23;20294;-89
2022/01/24 21:46:48;;;;;;;34.30;11.50;;;;;;;;;;6145728;23;20499;-90
2022/01/24 21:49:54;;;;;;;33.33;12.20;;;;;;;;;;6142585;23;20298;-89
2022/01/24 21:52:59;;;;;;;27.80;11.57;;;;;;;;;;6144149;23;20222;-90
2022/01/24 21:56:05;;;;;;;23.10;10.07;;;;;;;;;;6141870;23;20177;-89
2022/01/24 21:59:10;;;;;;;25.10;10.80;;;;;;;;;;6140977;23;20803;-88
2022/01/24 22:02:15;;;;;;;27.30;10.70;;;;;;;;;;6142739;23;20194;-88
2022/01/24 22:05:22;;;;;;;30.40;11.17;;;;;;;;;;6141830;23;20169;-90
2022/01/24 22:08:47;;;;;;;23.80;10.27;;;;;;;;;;6143691;23;20213;-89
2022/01/24 22:11:52;;;;;;;25.70;10.63;;;;;;;;;;6142977;23;20169;-91
2022/01/24 22:14:57;;;;;;;24.37;10.10;;;;;;;;;;6143338;23;20170;-88
2022/01/24 22:18:04;;;;;;;27.93;10.83;;;;;;;;;;6141443;23;20169;-90
2022/01/24 22:21:14;;;;;;;29.63;11.13;;;;;;;;;;6142763;23;20170;-90
2022/01/24 22:24:19;;;;;;;25.37;10.67;;;;;;;;;;6140532;23;20258;-89
2022/01/24 22:27:24;;;;;;;31.87;11.33;;;;;;;;;;6140803;23;20173;-89
2022/01/24 22:30:30;;;;;;;29.80;11.10;;;;;;;;;;6141664;23;20169;-89
2022/01/24 22:33:38;;;;;;;29.03;11.33;;;;;;;;;;6145026;23;20213;-89
2022/01/24 22:36:45;;;;;;;27.90;10.63;;;;;;;;;;6143154;23;20225;-90
2022/01/24 22:39:51;;;;;;;23.33;10.33;;;;;;;;;;6142888;23;20200;-90
2022/01/24 22:42:56;;;;;;;25.40;10.97;;;;;;;;;;6143750;23;20177;-90
2022/01/24 22:46:04;;;;;;;25.07;11.33;;;;;;;;;;6142580;23;20157;-90
2022/01/24 22:49:10;;;;;;;27.93;11.13;;;;;;;;;;6143245;23;20554;-89
2022/01/24 22:52:17;;;;;;;23.23;11.00;;;;;;;;;;6143073;23;20160;-89
2022/01/24 22:55:23;;;;;;;24.90;10.77;;;;;;;;;;6147249;23;20247;-88
2022/01/24 22:58:30;;;;;;;26.03;11.37;;;;;;;;;;6142869;23;20196;-90
2022/01/24 23:01:36;;;;;;;26.90;10.83;;;;;;;;;;6140589;23;20289;-89
2022/01/24 23:04:42;;;;;;;22.97;10.43;;;;;;;;;;6142830;23;20177;-89
2022/01/24 23:07:49;;;;;;;28.37;11.60;;;;;;;;;;6141769;23;20165;-88
2022/01/24 23:11:01;;;;;;;32.97;11.27;;;;;;;;;;6140254;23;20197;-91
2022/01/24 23:17:38;;;;;;;26.27;11.20;;;;;;;;;;6141802;23;20218;-90
2022/01/24 23:20:43;;;;;;;29.23;11.83;;;;;;;;;;6143018;23;20170;-90
2022/01/24 23:23:52;;;;;;;26.27;11.07;;;;;;;;;;6142482;23;20189;-89
2022/01/24 23:27:05;;;;;;;28.93;12.17;;;;;;;;;;6141330;23;20168;-90
2022/01/24 23:30:15;;;;;;;25.50;10.60;;;;;;;;;;6140621;23;20180;-89
2022/01/24 23:33:31;;;;;;;26.03;11.83;;;;;;;;;;6143127;23;20268;-89
2022/01/24 23:40:03;;;;;;;26.23;11.43;;;;;;;;;;6114263;23;20228;-90
2022/01/24 23:43:11;;;;;;;23.83;10.73;;;;;;;;;;6140392;23;20173;-90
2022/01/24 23:46:20;;;;;;;27.93;11.37;;;;;;;;;;6144777;23;20239;-90
2022/01/24 23:49:26;;;;;;;25.27;10.63;;;;;;;;;;6140891;23;20177;-91
2022/01/24 23:52:32;;;;;;;23.97;10.30;;;;;;;;;;6143772;23;20177;-90
